Other Surface Observations
Issued by NWS Great Falls, MT

Home | Current Version | Previous Version | Text Only | Print | Product List | Glossary On
Versions: 1 2 3 4 5 6 7 8 9 10 11 12 13 14 15 16 17 18 19 20 21 22 23 24 25 26 27 28 29 30 31 32 33 34 35 36 37 38 39 40 41 42 43 44 45 46 47 48 49 50
000
SXUS55 KTFX 021053
OSOTFX
AREA AWOS OBSERVATIONS
NATIONAL WEATHER SERVICE GREAT FALLS MT
0450 AM MDT THU JUL 02 2015

METAR KPWD 021045Z AUTO 33004KT 4SM 12/12 A3001 RMK PLENTYWOOD
METAR K1S3 021045Z AUTO 24004KT 8SM 17/16 A3009 RMK FORSYTH
METAR KS71 021045Z AUTO 28003KT 7SM 14/12 A3013 RMK CHINOOK
METAR K79S 021045Z AUTO 00000KT 10SM 15/12 A3017 RMK FORT BENTON
METAR K38S 021045Z AUTO 35003KT 10SM 15/11 A3026 RMK DEER LODGE
METAR K3U3 021045Z AUTO 22004KT 13/09 A3024 RMK ANACONDA
METAR K6S5 021045Z AUTO 19007KT 10SM 15/06 A3012 RMK HAMILTON
METAR K88M 021045Z AUTO 00000KT 10SM 16/12 A3011 RMK EUREKA



USA.gov is the U.S. government's official web portal to all federal, state and local government web resources and services.